sensor_id;sensor_type;location;lat;lon;timestamp;pressure;altitude;pressure_sealevel;temperature;humidity
8627;BME280;4351;51.422;6.794;2022-12-07T00:01:18;98779.25;;;5.45;100.00
8627;BME280;4351;51.422;6.794;2022-12-07T00:03:48;98780.09;;;5.45;100.00
8627;BME280;4351;51.422;6.794;2022-12-07T00:06:17;98781.78;;;5.46;100.00
8627;BME280;4351;51.422;6.794;2022-12-07T00:08:46;98781.38;;;5.52;100.00
8627;BME280;4351;51.422;6.794;2022-12-07T00:11:16;98784.91;;;5.40;100.00
8627;BME280;4351;51.422;6.794;2022-12-07T00:13:47;98785.56;;;5.44;100.00
8627;BME280;4351;51.422;6.794;2022-12-07T00:16:17;98781.38;;;5.52;100.00
8627;BME280;4351;51.422;6.794;2022-12-07T00:18:46;98781.41;;;5.39;100.00
8627;BME280;4351;51.422;6.794;2022-12-07T00:21:15;98776.03;;;5.52;100.00
8627;BME280;4351;51.422;6.794;2022-12-07T00:23:44;98780.84;;;5.47;100.00
8627;BME280;4351;51.422;6.794;2022-12-07T00:26:14;98768.34;;;5.48;100.00
8627;BME280;4351;51.422;6.794;2022-12-07T00:28:46;98784.16;;;5.51;100.00
8627;BME280;4351;51.422;6.794;2022-12-07T00:31:16;98771.53;;;5.53;100.00
8627;BME280;4351;51.422;6.794;2022-12-07T00:33:45;98756.31;;;5.67;100.00
8627;BME280;4351;51.422;6.794;2022-12-07T00:36:15;98751.09;;;5.52;100.00
8627;BME280;4351;51.422;6.794;2022-12-07T00:38:50;98742.63;;;5.58;100.00
8627;BME280;4351;51.422;6.794;2022-12-07T00:41:20;98733.88;;;5.56;100.00
8627;BME280;4351;51.422;6.794;2022-12-07T00:43:50;98738.81;;;5.49;100.00
8627;BME280;4351;51.422;6.794;2022-12-07T00:46:19;98729.38;;;5.57;100.00
8627;BME280;4351;51.422;6.794;2022-12-07T00:48:49;98734.75;;;5.44;100.00
8627;BME280;4351;51.422;6.794;2022-12-07T00:51:19;98737.19;;;5.47;100.00
8627;BME280;4351;51.422;6.794;2022-12-07T00:53:48;98730.91;;;5.48;100.00
8627;BME280;4351;51.422;6.794;2022-12-07T00:56:20;98732.59;;;5.49;100.00
8627;BME280;4351;51.422;6.794;2022-12-07T00:58:55;98734.06;;;5.53;100.00
8627;BME280;4351;51.422;6.794;2022-12-07T01:01:25;98749.53;;;5.36;100.00
8627;BME280;4351;51.422;6.794;2022-12-07T01:03:54;98749.31;;;5.39;100.00
8627;BME280;4351;51.422;6.794;2022-12-07T01:06:23;98761.59;;;5.29;100.00
8627;BME280;4351;51.422;6.794;2022-12-07T01:08:52;98760.53;;;5.45;100.00
8627;BME280;4351;51.422;6.794;2022-12-07T01:11:21;98779.06;;;5.35;100.00
8627;BME280;4351;51.422;6.794;2022-12-07T01:13:50;98773.47;;;5.38;100.00
8627;BME280;4351;51.422;6.794;2022-12-07T01:16:22;98763.63;;;5.38;100.00
8627;BME280;4351;51.422;6.794;2022-12-07T01:18:52;98762.56;;;5.41;100.00
8627;BME280;4351;51.422;6.794;2022-12-07T01:21:22;98757.63;;;5.48;100.00
8627;BME280;4351;51.422;6.794;2022-12-07T01:23:51;98769.84;;;5.39;100.00
8627;BME280;4351;51.422;6.794;2022-12-07T01:26:21;98775.31;;;5.37;100.00
8627;BME280;4351;51.422;6.794;2022-12-07T01:28:50;98767.06;;;5.40;100.00
8627;BME280;4351;51.422;6.794;2022-12-07T01:31:21;98765.34;;;5.39;100.00
8627;BME280;4351;51.422;6.794;2022-12-07T01:33:52;98774.97;;;5.29;100.00
8627;BME280;4351;51.422;6.794;2022-12-07T01:36:21;98775.41;;;5.36;100.00
8627;BME280;4351;51.422;6.794;2022-12-07T01:38:51;98781.59;;;5.36;100.00
8627;BME280;4351;51.422;6.794;2022-12-07T01:41:21;98772.94;;;5.46;100.00
8627;BME280;4351;51.422;6.794;2022-12-07T01:44:10;98772.41;;;5.40;100.00
8627;BME280;4351;51.422;6.794;2022-12-07T01:46:41;98764.28;;;5.29;100.00
8627;BME280;4351;51.422;6.794;2022-12-07T01:49:13;98751.22;;;5.50;100.00
8627;BME280;4351;51.422;6.794;2022-12-07T01:51:43;98755.31;;;5.30;100.00
8627;BME280;4351;51.422;6.794;2022-12-07T01:54:15;98756.69;;;5.36;100.00
8627;BME280;4351;51.422;6.794;2022-12-07T01:56:48;98746.31;;;5.31;100.00
8627;BME280;4351;51.422;6.794;2022-12-07T01:59:18;98750.16;;;5.27;100.00
8627;BME280;4351;51.422;6.794;2022-12-07T02:01:48;98750.06;;;5.28;100.00
8627;BME280;4351;51.422;6.794;2022-12-07T02:04:18;98742.88;;;5.29;100.00
8627;BME280;4351;51.422;6.794;2022-12-07T02:06:46;98754.25;;;5.20;100.00
8627;BME280;4351;51.422;6.794;2022-12-07T02:09:15;98752.53;;;5.18;100.00
8627;BME280;4351;51.422;6.794;2022-12-07T02:11:43;98755.06;;;5.20;100.00
8627;BME280;4351;51.422;6.794;2022-12-07T02:14:10;98740.31;;;5.27;100.00
8627;BME280;4351;51.422;6.794;2022-12-07T02:16:47;98751.34;;;5.23;100.00
8627;BME280;4351;51.422;6.794;2022-12-07T02:19:43;98742.56;;;5.21;100.00
8627;BME280;4351;51.422;6.794;2022-12-07T02:22:29;98730.69;;;5.25;100.00
8627;BME280;4351;51.422;6.794;2022-12-07T02:25:08;98727.59;;;5.31;100.00
8627;BME280;4351;51.422;6.794;2022-12-07T02:27:45;98733.06;;;5.16;100.00
8627;BME280;4351;51.422;6.794;2022-12-07T02:30:17;98739.28;;;5.17;100.00
8627;BME280;4351;51.422;6.794;2022-12-07T02:32:51;98742.25;;;5.12;100.00
8627;BME280;4351;51.422;6.794;2022-12-07T02:35:25;98744.72;;;5.15;100.00
8627;BME280;4351;51.422;6.794;2022-12-07T02:38:01;98750.28;;;5.12;100.00
8627;BME280;4351;51.422;6.794;2022-12-07T02:40:34;98753.16;;;5.09;100.00
8627;BME280;4351;51.422;6.794;2022-12-07T02:43:08;98742.69;;;5.19;100.00
8627;BME280;4351;51.422;6.794;2022-12-07T02:45:41;98740.53;;;5.11;100.00
8627;BME280;4351;51.422;6.794;2022-12-07T02:48:12;98745.88;;;5.11;100.00
8627;BME280;4351;51.422;6.794;2022-12-07T02:50:44;98751.47;;;5.08;100.00
8627;BME280;4351;51.422;6.794;2022-12-07T02:53:28;98739.72;;;5.11;100.00
8627;BME280;4351;51.422;6.794;2022-12-07T02:55:56;98736.38;;;5.07;100.00
8627;BME280;4351;51.422;6.794;2022-12-07T02:58:33;98741.19;;;5.02;100.00
8627;BME280;4351;51.422;6.794;2022-12-07T03:01:14;98752.09;;;4.99;100.00
8627;BME280;4351;51.422;6.794;2022-12-07T03:03:49;98742.91;;;5.03;100.00
8627;BME280;4351;51.422;6.794;2022-12-07T03:06:22;98756.69;;;4.97;100.00
8627;BME280;4351;51.422;6.794;2022-12-07T03:09:01;98749.97;;;5.04;100.00
8627;BME280;4351;51.422;6.794;2022-12-07T03:11:42;98748.66;;;4.97;100.00
8627;BME280;4351;51.422;6.794;2022-12-07T03:14:17;98752.06;;;4.86;100.00
8627;BME280;4351;51.422;6.794;2022-12-07T03:16:52;98750.03;;;4.89;100.00
8627;BME280;4351;51.422;6.794;2022-12-07T03:19:25;98750.81;;;4.91;100.00
8627;BME280;4351;51.422;6.794;2022-12-07T03:21:57;98748.16;;;4.91;100.00
8627;BME280;4351;51.422;6.794;2022-12-07T03:24:29;98745.56;;;4.90;100.00
8627;BME280;4351;51.422;6.794;2022-12-07T03:27:02;98756.69;;;4.83;100.00
8627;BME280;4351;51.422;6.794;2022-12-07T03:29:36;98760.63;;;4.78;100.00
8627;BME280;4351;51.422;6.794;2022-12-07T03:32:10;98767.78;;;4.77;100.00
8627;BME280;4351;51.422;6.794;2022-12-07T03:34:46;98765.75;;;4.81;100.00
8627;BME280;4351;51.422;6.794;2022-12-07T03:37:20;98774.16;;;4.62;100.00
8627;BME280;4351;51.422;6.794;2022-12-07T03:39:57;98768.69;;;4.63;100.00
8627;BME280;4351;51.422;6.794;2022-12-07T03:42:27;98777.69;;;4.62;100.00
8627;BME280;4351;51.422;6.794;2022-12-07T03:44:55;98792.63;;;4.52;100.00
8627;BME280;4351;51.422;6.794;2022-12-07T03:47:29;98788.72;;;4.70;100.00
8627;BME280;4351;51.422;6.794;2022-12-07T03:50:02;98798.31;;;4.60;100.00
8627;BME280;4351;51.422;6.794;2022-12-07T03:52:39;98803.09;;;4.55;100.00
8627;BME280;4351;51.422;6.794;2022-12-07T03:55:11;98794.13;;;4.56;100.00
8627;BME280;4351;51.422;6.794;2022-12-07T03:57:44;98800.75;;;4.63;100.00
8627;BME280;4351;51.422;6.794;2022-12-07T04:00:14;98792.66;;;4.65;100.00
8627;BME280;4351;51.422;6.794;2022-12-07T04:02:44;98782.81;;;4.65;100.00
8627;BME280;4351;51.422;6.794;2022-12-07T04:05:12;98781.44;;;4.72;100.00
8627;BME280;4351;51.422;6.794;2022-12-07T04:07:40;98788.06;;;4.67;100.00
8627;BME280;4351;51.422;6.794;2022-12-07T04:10:09;98793.50;;;4.65;100.00
8627;BME280;4351;51.422;6.794;2022-12-07T04:12:38;98791.50;;;4.69;100.00
8627;BME280;4351;51.422;6.794;2022-12-07T04:15:07;98784.53;;;4.66;100.00
8627;BME280;4351;51.422;6.794;2022-12-07T04:17:35;98779.38;;;4.63;100.00
8627;BME280;4351;51.422;6.794;2022-12-07T04:20:06;98768.84;;;4.75;100.00
8627;BME280;4351;51.422;6.794;2022-12-07T04:22:34;98785.09;;;4.71;100.00
8627;BME280;4351;51.422;6.794;2022-12-07T04:25:03;98779.00;;;4.69;100.00
8627;BME280;4351;51.422;6.794;2022-12-07T04:27:31;98782.16;;;4.62;100.00
8627;BME280;4351;51.422;6.794;2022-12-07T04:29:59;98777.88;;;4.59;100.00
8627;BME280;4351;51.422;6.794;2022-12-07T04:32:27;98772.47;;;4.60;100.00
8627;BME280;4351;51.422;6.794;2022-12-07T04:34:55;98778.31;;;4.53;100.00
8627;BME280;4351;51.422;6.794;2022-12-07T04:37:25;98775.28;;;4.44;100.00
8627;BME280;4351;51.422;6.794;2022-12-07T04:39:53;98768.78;;;4.48;100.00
8627;BME280;4351;51.422;6.794;2022-12-07T04:42:21;98771.66;;;4.45;100.00
8627;BME280;4351;51.422;6.794;2022-12-07T04:44:49;98787.19;;;4.25;100.00
8627;BME280;4351;51.422;6.794;2022-12-07T04:47:17;98769.94;;;4.44;100.00
8627;BME280;4351;51.422;6.794;2022-12-07T04:49:45;98771.00;;;4.42;100.00
8627;BME280;4351;51.422;6.794;2022-12-07T04:52:13;98781.97;;;4.37;100.00
8627;BME280;4351;51.422;6.794;2022-12-07T04:54:42;98784.88;;;4.34;100.00
8627;BME280;4351;51.422;6.794;2022-12-07T04:57:10;98780.00;;;4.41;100.00
8627;BME280;4351;51.422;6.794;2022-12-07T04:59:38;98781.69;;;4.42;100.00
8627;BME280;4351;51.422;6.794;2022-12-07T05:02:11;98785.81;;;4.33;100.00
8627;BME280;4351;51.422;6.794;2022-12-07T05:04:39;98780.44;;;4.47;100.00
8627;BME280;4351;51.422;6.794;2022-12-07T05:07:07;98770.69;;;4.46;100.00
8627;BME280;4351;51.422;6.794;2022-12-07T05:09:35;98775.94;;;4.48;100.00
8627;BME280;4351;51.422;6.794;2022-12-07T05:12:05;98765.38;;;4.46;100.00
8627;BME280;4351;51.422;6.794;2022-12-07T05:14:33;98767.84;;;4.50;100.00
8627;BME280;4351;51.422;6.794;2022-12-07T05:17:01;98762.53;;;4.63;100.00
8627;BME280;4351;51.422;6.794;2022-12-07T05:19:29;98757.38;;;4.59;100.00
8627;BME280;4351;51.422;6.794;2022-12-07T05:21:57;98753.50;;;4.51;100.00
8627;BME280;4351;51.422;6.794;2022-12-07T05:24:25;98761.63;;;4.49;100.00
8627;BME280;4351;51.422;6.794;2022-12-07T05:26:54;98757.66;;;4.42;100.00
8627;BME280;4351;51.422;6.794;2022-12-07T05:29:23;98747.63;;;4.45;100.00
8627;BME280;4351;51.422;6.794;2022-12-07T05:31:51;98749.53;;;4.43;100.00
8627;BME280;4351;51.422;6.794;2022-12-07T05:34:19;98753.06;;;4.44;100.00
8627;BME280;4351;51.422;6.794;2022-12-07T05:36:47;98752.00;;;4.46;100.00
8627;BME280;4351;51.422;6.794;2022-12-07T05:39:15;98752.19;;;4.43;100.00
8627;BME280;4351;51.422;6.794;2022-12-07T05:41:43;98743.25;;;4.44;100.00
8627;BME280;4351;51.422;6.794;2022-12-07T05:44:30;98744.31;;;4.42;100.00
8627;BME280;4351;51.422;6.794;2022-12-07T05:46:58;98745.81;;;4.46;100.00
8627;BME280;4351;51.422;6.794;2022-12-07T05:49:26;98750.22;;;4.47;100.00
8627;BME280;4351;51.422;6.794;2022-12-07T05:51:54;98742.28;;;4.45;100.00
8627;BME280;4351;51.422;6.794;2022-12-07T05:54:22;98748.78;;;4.41;100.00
8627;BME280;4351;51.422;6.794;2022-12-07T05:56:50;98751.56;;;4.40;100.00
8627;BME280;4351;51.422;6.794;2022-12-07T05:59:18;98749.34;;;4.46;100.00
8627;BME280;4351;51.422;6.794;2022-12-07T06:01:53;98739.59;;;4.45;100.00
8627;BME280;4351;51.422;6.794;2022-12-07T06:04:23;98746.03;;;4.43;100.00
8627;BME280;4351;51.422;6.794;2022-12-07T06:06:52;98740.06;;;4.52;100.00
8627;BME280;4351;51.422;6.794;2022-12-07T06:09:21;98753.63;;;4.49;100.00
8627;BME280;4351;51.422;6.794;2022-12-07T06:11:50;98758.84;;;4.51;100.00
8627;BME280;4351;51.422;6.794;2022-12-07T06:14:36;98765.69;;;4.55;100.00
8627;BME280;4351;51.422;6.794;2022-12-07T06:17:06;98776.59;;;4.52;100.00
8627;BME280;4351;51.422;6.794;2022-12-07T06:19:34;98773.72;;;4.55;100.00
8627;BME280;4351;51.422;6.794;2022-12-07T06:22:02;98771.03;;;4.55;100.00
8627;BME280;4351;51.422;6.794;2022-12-07T06:24:32;98777.44;;;4.52;100.00
8627;BME280;4351;51.422;6.794;2022-12-07T06:27:00;98789.59;;;4.43;100.00
8627;BME280;4351;51.422;6.794;2022-12-07T06:29:28;98785.97;;;4.44;100.00
8627;BME280;4351;51.422;6.794;2022-12-07T06:31:56;98789.41;;;4.46;100.00
8627;BME280;4351;51.422;6.794;2022-12-07T06:34:26;98798.34;;;4.45;100.00
8627;BME280;4351;51.422;6.794;2022-12-07T06:36:54;98788.13;;;4.52;100.00
8627;BME280;4351;51.422;6.794;2022-12-07T06:39:24;98796.53;;;4.46;100.00
8627;BME280;4351;51.422;6.794;2022-12-07T06:41:54;98807.97;;;4.48;100.00
8627;BME280;4351;51.422;6.794;2022-12-07T06:44:23;98804.13;;;4.52;100.00
8627;BME280;4351;51.422;6.794;2022-12-07T06:46:51;98807.34;;;4.44;100.00
8627;BME280;4351;51.422;6.794;2022-12-07T06:49:40;98803.69;;;4.45;100.00
8627;BME280;4351;51.422;6.794;2022-12-07T06:52:09;98810.56;;;4.50;100.00
8627;BME280;4351;51.422;6.794;2022-12-07T06:54:37;98866.25;;;4.41;100.00
8627;BME280;4351;51.422;6.794;2022-12-07T06:57:05;98921.50;;;4.41;100.00
8627;BME280;4351;51.422;6.794;2022-12-07T06:59:33;98915.94;;;4.58;100.00
8627;BME280;4351;51.422;6.794;2022-12-07T07:02:01;98919.28;;;4.47;100.00
8627;BME280;4351;51.422;6.794;2022-12-07T07:04:29;98918.44;;;4.47;100.00
8627;BME280;4351;51.422;6.794;2022-12-07T07:06:58;98925.75;;;4.43;100.00
8627;BME280;4351;51.422;6.794;2022-12-07T07:09:26;98932.06;;;4.42;100.00
8627;BME280;4351;51.422;6.794;2022-12-07T07:11:54;98941.03;;;4.41;100.00
8627;BME280;4351;51.422;6.794;2022-12-07T07:14:22;98948.50;;;4.36;100.00
8627;BME280;4351;51.422;6.794;2022-12-07T07:16:50;98952.38;;;4.30;100.00
8627;BME280;4351;51.422;6.794;2022-12-07T07:19:18;98955.66;;;4.21;100.00
8627;BME280;4351;51.422;6.794;2022-12-07T07:21:46;98941.41;;;4.35;100.00
8627;BME280;4351;51.422;6.794;2022-12-07T07:24:16;98947.50;;;4.37;100.00
8627;BME280;4351;51.422;6.794;2022-12-07T07:26:43;98944.38;;;4.30;100.00
8627;BME280;4351;51.422;6.794;2022-12-07T07:29:11;98951.72;;;4.27;100.00
8627;BME280;4351;51.422;6.794;2022-12-07T07:31:39;98957.63;;;4.17;100.00
8627;BME280;4351;51.422;6.794;2022-12-07T07:34:07;98953.28;;;4.16;100.00
8627;BME280;4351;51.422;6.794;2022-12-07T07:36:35;98948.41;;;4.23;100.00
8627;BME280;4351;51.422;6.794;2022-12-07T07:39:04;98952.88;;;4.22;100.00
8627;BME280;4351;51.422;6.794;2022-12-07T07:41:33;98960.13;;;4.20;100.00
8627;BME280;4351;51.422;6.794;2022-12-07T07:44:02;98955.66;;;4.21;100.00
8627;BME280;4351;51.422;6.794;2022-12-07T07:46:30;98965.56;;;4.04;100.00
8627;BME280;4351;51.422;6.794;2022-12-07T07:48:59;98968.16;;;4.06;100.00
8627;BME280;4351;51.422;6.794;2022-12-07T07:51:27;98979.16;;;3.99;100.00
8627;BME280;4351;51.422;6.794;2022-12-07T07:53:56;98970.81;;;4.06;100.00
8627;BME280;4351;51.422;6.794;2022-12-07T07:56:23;98971.09;;;4.01;100.00
8627;BME280;4351;51.422;6.794;2022-12-07T07:58:53;98975.19;;;4.07;100.00
8627;BME280;4351;51.422;6.794;2022-12-07T08:01:21;98972.13;;;4.13;100.00
8627;BME280;4351;51.422;6.794;2022-12-07T08:03:49;98961.28;;;4.16;100.00
8627;BME280;4351;51.422;6.794;2022-12-07T08:06:17;98963.94;;;4.16;100.00
8627;BME280;4351;51.422;6.794;2022-12-07T08:08:45;98970.16;;;4.17;100.00
8627;BME280;4351;51.422;6.794;2022-12-07T08:11:13;98970.25;;;4.30;100.00
8627;BME280;4351;51.422;6.794;2022-12-07T08:13:41;98961.63;;;4.39;100.00
8627;BME280;4351;51.422;6.794;2022-12-07T08:16:11;98956.38;;;4.52;100.00
8627;BME280;4351;51.422;6.794;2022-12-07T08:18:40;98961.22;;;4.60;100.00
8627;BME280;4351;51.422;6.794;2022-12-07T08:21:11;98947.06;;;4.72;100.00
8627;BME280;4351;51.422;6.794;2022-12-07T08:23:39;98937.00;;;4.91;100.00
8627;BME280;4351;51.422;6.794;2022-12-07T08:26:10;98924.44;;;5.06;100.00
8627;BME280;4351;51.422;6.794;2022-12-07T08:28:38;98943.81;;;4.82;100.00
8627;BME280;4351;51.422;6.794;2022-12-07T08:31:08;98946.47;;;4.82;100.00
8627;BME280;4351;51.422;6.794;2022-12-07T08:33:39;98955.88;;;4.60;100.00
8627;BME280;4351;51.422;6.794;2022-12-07T08:36:09;98966.75;;;4.57;100.00
8627;BME280;4351;51.422;6.794;2022-12-07T08:38:38;98976.50;;;4.43;100.00
8627;BME280;4351;51.422;6.794;2022-12-07T08:41:17;98976.13;;;4.35;100.00
8627;BME280;4351;51.422;6.794;2022-12-07T08:43:45;98978.63;;;4.38;100.00
8627;BME280;4351;51.422;6.794;2022-12-07T08:46:18;98973.91;;;4.56;100.00
8627;BME280;4351;51.422;6.794;2022-12-07T08:48:53;98967.69;;;4.70;100.00
8627;BME280;4351;51.422;6.794;2022-12-07T08:51:23;98969.84;;;4.78;100.00
8627;BME280;4351;51.422;6.794;2022-12-07T08:53:51;98965.94;;;4.84;100.00
8627;BME280;4351;51.422;6.794;2022-12-07T08:56:20;98971.75;;;4.76;100.00
8627;BME280;4351;51.422;6.794;2022-12-07T08:58:48;98968.16;;;4.77;100.00
8627;BME280;4351;51.422;6.794;2022-12-07T09:01:16;98972.16;;;4.70;100.00
8627;BME280;4351;51.422;6.794;2022-12-07T09:03:44;98967.69;;;4.70;100.00
8627;BME280;4351;51.422;6.794;2022-12-07T09:06:14;98982.78;;;4.57;100.00
8627;BME280;4351;51.422;6.794;2022-12-07T09:08:46;98972.84;;;4.74;100.00
8627;BME280;4351;51.422;6.794;2022-12-07T09:11:14;98978.94;;;4.61;100.00
8627;BME280;4351;51.422;6.794;2022-12-07T09:13:42;98973.31;;;4.80;100.00
8627;BME280;4351;51.422;6.794;2022-12-07T09:16:11;98967.28;;;4.91;100.00
8627;BME280;4351;51.422;6.794;2022-12-07T09:18:39;98967.63;;;5.00;100.00
8627;BME280;4351;51.422;6.794;2022-12-07T09:21:07;98958.38;;;5.18;100.00
8627;BME280;4351;51.422;6.794;2022-12-07T09:23:37;98974.06;;;5.10;100.00
8627;BME280;4351;51.422;6.794;2022-12-07T09:26:05;98968.53;;;5.13;100.00
8627;BME280;4351;51.422;6.794;2022-12-07T09:28:36;98973.25;;;5.23;100.00
8627;BME280;4351;51.422;6.794;2022-12-07T09:31:05;98977.72;;;5.22;100.00
8627;BME280;4351;51.422;6.794;2022-12-07T09:33:53;98964.50;;;5.34;100.00
8627;BME280;4351;51.422;6.794;2022-12-07T09:36:21;98973.06;;;5.26;100.00
8627;BME280;4351;51.422;6.794;2022-12-07T09:38:51;98968.16;;;5.33;100.00
8627;BME280;4351;51.422;6.794;2022-12-07T09:41:19;98967.09;;;5.35;100.00
8627;BME280;4351;51.422;6.794;2022-12-07T09:43:48;98961.31;;;5.42;100.00
8627;BME280;4351;51.422;6.794;2022-12-07T09:46:19;98958.53;;;5.43;100.00
8627;BME280;4351;51.422;6.794;2022-12-07T09:48:49;98975.31;;;5.32;100.00
8627;BME280;4351;51.422;6.794;2022-12-07T09:51:19;98972.44;;;5.35;100.00
8627;BME280;4351;51.422;6.794;2022-12-07T09:53:54;98962.91;;;5.44;100.00
8627;BME280;4351;51.422;6.794;2022-12-07T09:56:24;98980.25;;;5.38;100.00
8627;BME280;4351;51.422;6.794;2022-12-07T09:58:58;98972.06;;;5.55;100.00
8627;BME280;4351;51.422;6.794;2022-12-07T10:01:29;98962.00;;;5.58;100.00
8627;BME280;4351;51.422;6.794;2022-12-07T10:04:05;98961.78;;;5.61;100.00
8627;BME280;4351;51.422;6.794;2022-12-07T10:06:33;98960.31;;;5.70;100.00
8627;BME280;4351;51.422;6.794;2022-12-07T10:09:09;98952.16;;;5.72;100.00
8627;BME280;4351;51.422;6.794;2022-12-07T10:11:58;98948.94;;;5.80;100.00
8627;BME280;4351;51.422;6.794;2022-12-07T10:14:28;98926.88;;;6.02;100.00
8627;BME280;4351;51.422;6.794;2022-12-07T10:17:30;98941.78;;;5.93;100.00
8627;BME280;4351;51.422;6.794;2022-12-07T10:20:17;98940.63;;;6.11;100.00
8627;BME280;4351;51.422;6.794;2022-12-07T10:22:57;98932.88;;;6.06;100.00
8627;BME280;4351;51.422;6.794;2022-12-07T10:25:29;98942.75;;;6.05;100.00
8627;BME280;4351;51.422;6.794;2022-12-07T10:28:12;98934.19;;;6.13;100.00
8627;BME280;4351;51.422;6.794;2022-12-07T10:30:54;98927.97;;;6.26;100.00
8627;BME280;4351;51.422;6.794;2022-12-07T10:33:29;98930.41;;;6.42;100.00
8627;BME280;4351;51.422;6.794;2022-12-07T10:35:58;98933.09;;;6.29;100.00
8627;BME280;4351;51.422;6.794;2022-12-07T10:38:27;98938.44;;;6.42;100.00
8627;BME280;4351;51.422;6.794;2022-12-07T10:41:05;98946.63;;;6.14;100.00
8627;BME280;4351;51.422;6.794;2022-12-07T10:43:33;98938.16;;;6.20;100.00
8627;BME280;4351;51.422;6.794;2022-12-07T10:46:29;98845.59;;;6.29;100.00
8627;BME280;4351;51.422;6.794;2022-12-07T10:49:10;98853.38;;;6.32;100.00
8627;BME280;4351;51.422;6.794;2022-12-07T10:51:49;98861.31;;;6.34;100.00
8627;BME280;4351;51.422;6.794;2022-12-07T10:54:26;98875.47;;;6.36;100.00
8627;BME280;4351;51.422;6.794;2022-12-07T10:57:08;98879.44;;;6.30;100.00
8627;BME280;4351;51.422;6.794;2022-12-07T10:59:53;98875.84;;;6.43;100.00
8627;BME280;4351;51.422;6.794;2022-12-07T11:02:38;98884.97;;;6.40;100.00
8627;BME280;4351;51.422;6.794;2022-12-07T11:05:17;98879.06;;;6.48;100.00
8627;BME280;4351;51.422;6.794;2022-12-07T11:07:59;98891.41;;;6.38;100.00
8627;BME280;4351;51.422;6.794;2022-12-07T11:10:38;98888.06;;;6.47;100.00
8627;BME280;4351;51.422;6.794;2022-12-07T11:13:22;98891.53;;;6.36;100.00
8627;BME280;4351;51.422;6.794;2022-12-07T11:16:02;98905.16;;;6.20;100.00
8627;BME280;4351;51.422;6.794;2022-12-07T11:18:40;98896.88;;;6.23;100.00
8627;BME280;4351;51.422;6.794;2022-12-07T11:21:19;98877.56;;;6.44;100.00
8627;BME280;4351;51.422;6.794;2022-12-07T11:23:53;98876.78;;;6.55;100.00
8627;BME280;4351;51.422;6.794;2022-12-07T11:26:39;98882.41;;;6.39;100.00
8627;BME280;4351;51.422;6.794;2022-12-07T11:29:21;98876.22;;;6.38;100.00
8627;BME280;4351;51.422;6.794;2022-12-07T11:32:00;98879.50;;;6.42;100.00
8627;BME280;4351;51.422;6.794;2022-12-07T11:34:37;98889.19;;;6.31;100.00
8627;BME280;4351;51.422;6.794;2022-12-07T11:37:10;98883.25;;;6.39;100.00
8627;BME280;4351;51.422;6.794;2022-12-07T11:39:44;98877.84;;;6.52;100.00
8627;BME280;4351;51.422;6.794;2022-12-07T11:42:20;98883.38;;;6.38;100.00
8627;BME280;4351;51.422;6.794;2022-12-07T11:44:53;98872.34;;;6.42;100.00
8627;BME280;4351;51.422;6.794;2022-12-07T11:47:29;98877.34;;;6.47;100.00
8627;BME280;4351;51.422;6.794;2022-12-07T11:50:05;98872.75;;;6.49;100.00
8627;BME280;4351;51.422;6.794;2022-12-07T11:52:43;98866.19;;;6.53;100.00
8627;BME280;4351;51.422;6.794;2022-12-07T11:55:19;98881.84;;;6.47;100.00
8627;BME280;4351;51.422;6.794;2022-12-07T11:57:52;98870.81;;;6.51;100.00
8627;BME280;4351;51.422;6.794;2022-12-07T12:00:24;98864.75;;;6.85;100.00
8627;BME280;4351;51.422;6.794;2022-12-07T12:02:57;98870.28;;;6.95;100.00
8627;BME280;4351;51.422;6.794;2022-12-07T12:05:28;98882.44;;;6.88;100.00
8627;BME280;4351;51.422;6.794;2022-12-07T12:08:03;98901.09;;;6.52;100.00
8627;BME280;4351;51.422;6.794;2022-12-07T12:11:03;98889.84;;;6.60;100.00
8627;BME280;4351;51.422;6.794;2022-12-07T12:13:52;98899.22;;;6.41;100.00
8627;BME280;4351;51.422;6.794;2022-12-07T12:17:11;98885.44;;;6.59;100.00
8627;BME280;4351;51.422;6.794;2022-12-07T12:19:58;98898.38;;;6.40;100.00
8627;BME280;4351;51.422;6.794;2022-12-07T12:22:34;98890.22;;;6.42;100.00
8627;BME280;4351;51.422;6.794;2022-12-07T12:25:05;98887.88;;;6.37;100.00
8627;BME280;4351;51.422;6.794;2022-12-07T12:27:36;98875.50;;;6.48;100.00
8627;BME280;4351;51.422;6.794;2022-12-07T12:30:06;98882.72;;;6.47;100.00
8627;BME280;4351;51.422;6.794;2022-12-07T12:32:38;98861.38;;;6.70;100.00
8627;BME280;4351;51.422;6.794;2022-12-07T12:35:26;98873.59;;;6.74;100.00
8627;BME280;4351;51.422;6.794;2022-12-07T12:47:41;98862.00;;;6.74;100.00
8627;BME280;4351;51.422;6.794;2022-12-07T12:50:18;98862.59;;;6.66;100.00
8627;BME280;4351;51.422;6.794;2022-12-07T13:02:21;98888.72;;;6.38;100.00
8627;BME280;4351;51.422;6.794;2022-12-07T13:04:52;98889.72;;;6.24;100.00
8627;BME280;4351;51.422;6.794;2022-12-07T13:07:53;98888.09;;;6.34;100.00
8627;BME280;4351;51.422;6.794;2022-12-07T13:10:40;98888.28;;;6.44;100.00
8627;BME280;4351;51.422;6.794;2022-12-07T13:13:39;98892.03;;;6.41;100.00
8627;BME280;4351;51.422;6.794;2022-12-07T13:22:46;98882.31;;;6.40;100.00
8627;BME280;4351;51.422;6.794;2022-12-07T13:25:21;98883.66;;;6.46;100.00
8627;BME280;4351;51.422;6.794;2022-12-07T13:27:57;98877.78;;;6.41;100.00
8627;BME280;4351;51.422;6.794;2022-12-07T13:30:26;98871.69;;;6.39;100.00
8627;BME280;4351;51.422;6.794;2022-12-07T13:32:56;98853.88;;;6.51;100.00
8627;BME280;4351;51.422;6.794;2022-12-07T13:35:30;98858.06;;;6.42;100.00
8627;BME280;4351;51.422;6.794;2022-12-07T13:38:02;98860.13;;;6.38;100.00
8627;BME280;4351;51.422;6.794;2022-12-07T13:40:31;98847.88;;;6.47;100.00
8627;BME280;4351;51.422;6.794;2022-12-07T13:43:00;98845.63;;;6.41;100.00
8627;BME280;4351;51.422;6.794;2022-12-07T13:45:30;98845.34;;;6.32;100.00
8627;BME280;4351;51.422;6.794;2022-12-07T13:48:21;98836.84;;;6.39;100.00
8627;BME280;4351;51.422;6.794;2022-12-07T13:50:55;98834.63;;;6.32;100.00
8627;BME280;4351;51.422;6.794;2022-12-07T13:53:25;98836.38;;;6.34;100.00
8627;BME280;4351;51.422;6.794;2022-12-07T13:55:57;98813.91;;;6.48;100.00
8627;BME280;4351;51.422;6.794;2022-12-07T13:58:27;98821.03;;;6.36;100.00
8627;BME280;4351;51.422;6.794;2022-12-07T14:00:57;98820.28;;;6.34;100.00
8627;BME280;4351;51.422;6.794;2022-12-07T14:03:32;98815.03;;;6.32;100.00
8627;BME280;4351;51.422;6.794;2022-12-07T14:06:10;98817.84;;;6.30;100.00
8627;BME280;4351;51.422;6.794;2022-12-07T14:08:42;98796.94;;;6.36;100.00
8627;BME280;4351;51.422;6.794;2022-12-07T14:11:14;98796.81;;;6.37;100.00
8627;BME280;4351;51.422;6.794;2022-12-07T14:13:57;98804.09;;;6.35;100.00
8627;BME280;4351;51.422;6.794;2022-12-07T14:16:30;98805.63;;;6.26;100.00